sensor_id;sensor_type;location;lat;lon;timestamp;temperature;humidity
14771;DHT22;7477;45.222;5.688;2023-04-01T00:00:07;10.60;99.90
14771;DHT22;7477;45.222;5.688;2023-04-01T00:03:28;10.50;99.90
14771;DHT22;7477;45.222;5.688;2023-04-01T00:06:48;10.50;99.90
14771;DHT22;7477;45.222;5.688;2023-04-01T00:10:09;10.50;99.90
14771;DHT22;7477;45.222;5.688;2023-04-01T00:13:28;10.60;99.90
14771;DHT22;7477;45.222;5.688;2023-04-01T00:16:48;10.50;99.90
14771;DHT22;7477;45.222;5.688;2023-04-01T00:20:07;10.50;99.90
14771;DHT22;7477;45.222;5.688;2023-04-01T00:23:27;10.50;99.90
14771;DHT22;7477;45.222;5.688;2023-04-01T00:26:46;10.50;99.90
14771;DHT22;7477;45.222;5.688;2023-04-01T00:30:07;10.50;99.90
14771;DHT22;7477;45.222;5.688;2023-04-01T00:33:27;10.50;99.90
14771;DHT22;7477;45.222;5.688;2023-04-01T00:36:46;10.50;99.90
14771;DHT22;7477;45.222;5.688;2023-04-01T00:40:07;10.40;99.90
14771;DHT22;7477;45.222;5.688;2023-04-01T00:43:27;10.40;99.90
14771;DHT22;7477;45.222;5.688;2023-04-01T00:46:46;10.30;99.90
14771;DHT22;7477;45.222;5.688;2023-04-01T00:50:06;10.20;99.90
14771;DHT22;7477;45.222;5.688;2023-04-01T00:53:25;10.30;99.90
14771;DHT22;7477;45.222;5.688;2023-04-01T00:56:50;10.20;99.90
14771;DHT22;7477;45.222;5.688;2023-04-01T01:00:16;10.30;99.90
14771;DHT22;7477;45.222;5.688;2023-04-01T01:03:36;10.20;99.90
14771;DHT22;7477;45.222;5.688;2023-04-01T01:10:39;10.30;99.90
14771;DHT22;7477;45.222;5.688;2023-04-01T01:35:46;10.00;99.90
14771;DHT22;7477;45.222;5.688;2023-04-01T01:39:08;10.00;99.90
14771;DHT22;7477;45.222;5.688;2023-04-01T01:42:29;9.90;99.90
14771;DHT22;7477;45.222;5.688;2023-04-01T01:45:56;10.00;99.90
14771;DHT22;7477;45.222;5.688;2023-04-01T01:49:18;10.00;99.90
14771;DHT22;7477;45.222;5.688;2023-04-01T01:52:38;10.00;99.90
14771;DHT22;7477;45.222;5.688;2023-04-01T01:55:57;10.00;99.90
14771;DHT22;7477;45.222;5.688;2023-04-01T01:59:19;10.00;99.90
14771;DHT22;7477;45.222;5.688;2023-04-01T02:02:44;10.00;99.90
14771;DHT22;7477;45.222;5.688;2023-04-01T02:06:07;10.00;99.90
14771;DHT22;7477;45.222;5.688;2023-04-01T02:09:26;10.00;99.90
14771;DHT22;7477;45.222;5.688;2023-04-01T02:12:46;10.00;99.90
14771;DHT22;7477;45.222;5.688;2023-04-01T02:16:17;10.10;99.90
14771;DHT22;7477;45.222;5.688;2023-04-01T02:19:55;10.00;99.90
14771;DHT22;7477;45.222;5.688;2023-04-01T02:23:16;10.00;99.90
14771;DHT22;7477;45.222;5.688;2023-04-01T02:26:35;10.10;99.90
14771;DHT22;7477;45.222;5.688;2023-04-01T02:29:55;10.00;99.90
14771;DHT22;7477;45.222;5.688;2023-04-01T02:33:14;10.00;99.90
14771;DHT22;7477;45.222;5.688;2023-04-01T02:36:35;10.00;99.90
14771;DHT22;7477;45.222;5.688;2023-04-01T02:40:00;10.00;99.90
14771;DHT22;7477;45.222;5.688;2023-04-01T02:43:19;9.90;99.90
14771;DHT22;7477;45.222;5.688;2023-04-01T02:46:40;9.90;99.90
14771;DHT22;7477;45.222;5.688;2023-04-01T02:49:59;9.90;99.90
14771;DHT22;7477;45.222;5.688;2023-04-01T02:53:18;9.90;99.90
14771;DHT22;7477;45.222;5.688;2023-04-01T02:56:38;10.00;99.90
14771;DHT22;7477;45.222;5.688;2023-04-01T02:59:57;9.90;99.90
14771;DHT22;7477;45.222;5.688;2023-04-01T03:03:16;9.90;99.90
14771;DHT22;7477;45.222;5.688;2023-04-01T03:06:36;9.90;99.90
14771;DHT22;7477;45.222;5.688;2023-04-01T03:09:55;9.90;99.90
14771;DHT22;7477;45.222;5.688;2023-04-01T03:13:14;9.90;99.90
14771;DHT22;7477;45.222;5.688;2023-04-01T03:16:33;9.90;99.90
14771;DHT22;7477;45.222;5.688;2023-04-01T03:19:52;9.90;99.90
14771;DHT22;7477;45.222;5.688;2023-04-01T03:23:12;9.90;99.90
14771;DHT22;7477;45.222;5.688;2023-04-01T03:26:31;9.90;99.90
14771;DHT22;7477;45.222;5.688;2023-04-01T03:29:51;9.90;99.90
14771;DHT22;7477;45.222;5.688;2023-04-01T03:33:10;9.90;99.90
14771;DHT22;7477;45.222;5.688;2023-04-01T03:36:29;9.90;99.90
14771;DHT22;7477;45.222;5.688;2023-04-01T03:39:48;9.90;99.90
14771;DHT22;7477;45.222;5.688;2023-04-01T03:43:07;9.80;99.90
14771;DHT22;7477;45.222;5.688;2023-04-01T03:46:29;9.90;99.90
14771;DHT22;7477;45.222;5.688;2023-04-01T03:49:48;9.90;99.90
14771;DHT22;7477;45.222;5.688;2023-04-01T03:53:07;9.90;99.90
14771;DHT22;7477;45.222;5.688;2023-04-01T03:56:26;10.00;99.90
14771;DHT22;7477;45.222;5.688;2023-04-01T03:59:46;9.90;99.90
14771;DHT22;7477;45.222;5.688;2023-04-01T04:03:06;9.90;99.90
14771;DHT22;7477;45.222;5.688;2023-04-01T04:06:26;9.90;99.90
14771;DHT22;7477;45.222;5.688;2023-04-01T04:09:46;9.90;99.90
14771;DHT22;7477;45.222;5.688;2023-04-01T04:13:06;9.90;99.90
14771;DHT22;7477;45.222;5.688;2023-04-01T04:16:26;9.90;99.90
14771;DHT22;7477;45.222;5.688;2023-04-01T04:19:46;9.90;99.90
14771;DHT22;7477;45.222;5.688;2023-04-01T04:23:05;9.90;99.90
14771;DHT22;7477;45.222;5.688;2023-04-01T04:26:24;9.90;99.90
14771;DHT22;7477;45.222;5.688;2023-04-01T04:29:44;9.90;99.90
14771;DHT22;7477;45.222;5.688;2023-04-01T04:33:04;9.90;99.90
14771;DHT22;7477;45.222;5.688;2023-04-01T04:36:24;9.90;99.90
14771;DHT22;7477;45.222;5.688;2023-04-01T04:39:43;9.90;99.90
14771;DHT22;7477;45.222;5.688;2023-04-01T04:43:03;9.90;99.90
14771;DHT22;7477;45.222;5.688;2023-04-01T04:46:23;9.90;99.90
14771;DHT22;7477;45.222;5.688;2023-04-01T04:49:42;9.90;99.90
14771;DHT22;7477;45.222;5.688;2023-04-01T04:53:02;9.90;99.90
14771;DHT22;7477;45.222;5.688;2023-04-01T04:56:22;9.90;99.90
14771;DHT22;7477;45.222;5.688;2023-04-01T04:59:44;9.90;99.90
14771;DHT22;7477;45.222;5.688;2023-04-01T05:03:03;9.80;99.90
14771;DHT22;7477;45.222;5.688;2023-04-01T05:06:22;9.80;99.90
14771;DHT22;7477;45.222;5.688;2023-04-01T05:09:41;9.80;99.90
14771;DHT22;7477;45.222;5.688;2023-04-01T05:13:01;9.80;99.90
14771;DHT22;7477;45.222;5.688;2023-04-01T05:16:20;9.90;99.90
14771;DHT22;7477;45.222;5.688;2023-04-01T05:19:40;9.90;99.90
14771;DHT22;7477;45.222;5.688;2023-04-01T05:22:59;9.90;99.90
14771;DHT22;7477;45.222;5.688;2023-04-01T05:26:19;9.80;99.90
14771;DHT22;7477;45.222;5.688;2023-04-01T05:29:38;9.80;99.90
14771;DHT22;7477;45.222;5.688;2023-04-01T05:32:57;9.90;99.90
14771;DHT22;7477;45.222;5.688;2023-04-01T05:36:17;9.90;99.90
14771;DHT22;7477;45.222;5.688;2023-04-01T05:39:39;9.70;99.90
14771;DHT22;7477;45.222;5.688;2023-04-01T05:42:59;9.80;99.90
14771;DHT22;7477;45.222;5.688;2023-04-01T05:46:19;9.80;99.90
14771;DHT22;7477;45.222;5.688;2023-04-01T05:49:39;9.80;99.90
14771;DHT22;7477;45.222;5.688;2023-04-01T05:52:58;9.80;99.90
14771;DHT22;7477;45.222;5.688;2023-04-01T05:56:18;9.80;99.90
14771;DHT22;7477;45.222;5.688;2023-04-01T05:59:37;9.80;99.90
14771;DHT22;7477;45.222;5.688;2023-04-01T06:02:59;9.80;99.90
14771;DHT22;7477;45.222;5.688;2023-04-01T06:06:29;9.80;99.90
14771;DHT22;7477;45.222;5.688;2023-04-01T06:09:50;9.90;99.90
14771;DHT22;7477;45.222;5.688;2023-04-01T06:39:06;10.00;99.90
14771;DHT22;7477;45.222;5.688;2023-04-01T06:42:48;10.10;99.90
14771;DHT22;7477;45.222;5.688;2023-04-01T06:56:37;10.30;99.90
14771;DHT22;7477;45.222;5.688;2023-04-01T07:00:00;10.30;99.90
14771;DHT22;7477;45.222;5.688;2023-04-01T07:07:33;10.30;99.90
14771;DHT22;7477;45.222;5.688;2023-04-01T07:10:50;10.30;99.90
14771;DHT22;7477;45.222;5.688;2023-04-01T07:14:24;10.30;99.90
14771;DHT22;7477;45.222;5.688;2023-04-01T07:17:45;10.40;99.90
14771;DHT22;7477;45.222;5.688;2023-04-01T07:21:20;10.50;99.90
14771;DHT22;7477;45.222;5.688;2023-04-01T07:24:44;10.50;99.90
14771;DHT22;7477;45.222;5.688;2023-04-01T07:28:06;10.60;99.90
14771;DHT22;7477;45.222;5.688;2023-04-01T07:35:13;10.80;99.90
14771;DHT22;7477;45.222;5.688;2023-04-01T07:39:04;10.80;99.90
14771;DHT22;7477;45.222;5.688;2023-04-01T07:49:30;11.10;99.90
14771;DHT22;7477;45.222;5.688;2023-04-01T07:56:51;11.20;99.90
14771;DHT22;7477;45.222;5.688;2023-04-01T08:00:35;11.20;99.90
14771;DHT22;7477;45.222;5.688;2023-04-01T08:21:14;11.20;99.90
14771;DHT22;7477;45.222;5.688;2023-04-01T08:24:43;11.20;99.90
14771;DHT22;7477;45.222;5.688;2023-04-01T08:28:16;11.20;99.90
14771;DHT22;7477;45.222;5.688;2023-04-01T08:31:48;10.90;99.90
14771;DHT22;7477;45.222;5.688;2023-04-01T08:39:09;11.30;99.90
14771;DHT22;7477;45.222;5.688;2023-04-01T08:42:59;11.40;99.90
14771;DHT22;7477;45.222;5.688;2023-04-01T08:50:04;11.50;99.90
14771;DHT22;7477;45.222;5.688;2023-04-01T09:06:01;11.70;99.90
14771;DHT22;7477;45.222;5.688;2023-04-01T09:09:17;12.00;99.90
14771;DHT22;7477;45.222;5.688;2023-04-01T09:41:30;13.40;99.90
14771;DHT22;7477;45.222;5.688;2023-04-01T09:45:09;13.70;99.90
14771;DHT22;7477;45.222;5.688;2023-04-01T09:52:14;13.10;99.90
14771;DHT22;7477;45.222;5.688;2023-04-01T10:11:01;13.00;99.90
14771;DHT22;7477;45.222;5.688;2023-04-01T10:18:25;12.80;99.90
14771;DHT22;7477;45.222;5.688;2023-04-01T10:29:42;12.80;99.90
14771;DHT22;7477;45.222;5.688;2023-04-01T10:39:57;12.70;99.90
14771;DHT22;7477;45.222;5.688;2023-04-01T10:43:52;12.60;99.90
14771;DHT22;7477;45.222;5.688;2023-04-01T10:51:14;12.60;99.90
14771;DHT22;7477;45.222;5.688;2023-04-01T11:05:49;13.00;99.90
14771;DHT22;7477;45.222;5.688;2023-04-01T11:42:17;12.70;99.90
14771;DHT22;7477;45.222;5.688;2023-04-01T11:53:02;13.20;99.90
14771;DHT22;7477;45.222;5.688;2023-04-01T11:56:51;13.40;99.90
14771;DHT22;7477;45.222;5.688;2023-04-01T12:04:12;13.40;99.90
14771;DHT22;7477;45.222;5.688;2023-04-01T12:08:00;13.40;99.90
14771;DHT22;7477;45.222;5.688;2023-04-01T12:19:23;14.00;99.90
14771;DHT22;7477;45.222;5.688;2023-04-01T12:26:47;14.20;99.90
14771;DHT22;7477;45.222;5.688;2023-04-01T12:45:29;14.10;99.90
14771;DHT22;7477;45.222;5.688;2023-04-01T12:49:04;14.10;99.90
14771;DHT22;7477;45.222;5.688;2023-04-01T13:04:26;14.40;99.90
14771;DHT22;7477;45.222;5.688;2023-04-01T13:08:17;14.30;99.90
14771;DHT22;7477;45.222;5.688;2023-04-01T13:29:20;14.40;99.90
14771;DHT22;7477;45.222;5.688;2023-04-01T13:32:47;14.40;99.90
14771;DHT22;7477;45.222;5.688;2023-04-01T13:44:12;14.10;99.90
14771;DHT22;7477;45.222;5.688;2023-04-01T13:54:52;13.90;99.90
14771;DHT22;7477;45.222;5.688;2023-04-01T14:09:41;13.70;99.90
14771;DHT22;7477;45.222;5.688;2023-04-01T14:17:12;13.50;99.90
14771;DHT22;7477;45.222;5.688;2023-04-01T14:28:24;13.00;99.90
14771;DHT22;7477;45.222;5.688;2023-04-01T14:31:58;12.90;99.90
14771;DHT22;7477;45.222;5.688;2023-04-01T14:49:36;12.30;99.90
14771;DHT22;7477;45.222;5.688;2023-04-01T14:53:28;12.00;99.90
14771;DHT22;7477;45.222;5.688;2023-04-01T15:11:19;11.80;99.90
14771;DHT22;7477;45.222;5.688;2023-04-01T15:25:33;11.40;99.90
14771;DHT22;7477;45.222;5.688;2023-04-01T15:40:11;11.50;99.90
14771;DHT22;7477;45.222;5.688;2023-04-01T15:43:43;11.40;99.90
14771;DHT22;7477;45.222;5.688;2023-04-01T15:47:52;11.40;99.90
14771;DHT22;7477;45.222;5.688;2023-04-01T15:50:54;11.50;99.90
14771;DHT22;7477;45.222;5.688;2023-04-01T16:12:12;11.30;99.90
14771;DHT22;7477;45.222;5.688;2023-04-01T16:37:20;10.70;99.90
14771;DHT22;7477;45.222;5.688;2023-04-01T16:44:23;10.60;99.90
14771;DHT22;7477;45.222;5.688;2023-04-01T16:51:44;10.40;99.90
14771;DHT22;7477;45.222;5.688;2023-04-01T16:55:18;10.40;99.90
14771;DHT22;7477;45.222;5.688;2023-04-01T16:58:43;10.40;99.90
14771;DHT22;7477;45.222;5.688;2023-04-01T17:02:12;10.50;99.90
14771;DHT22;7477;45.222;5.688;2023-04-01T17:09:43;10.40;99.90
14771;DHT22;7477;45.222;5.688;2023-04-01T17:13:35;10.50;99.90
14771;DHT22;7477;45.222;5.688;2023-04-01T17:17:18;10.50;99.90
14771;DHT22;7477;45.222;5.688;2023-04-01T17:21:03;10.50;99.90
14771;DHT22;7477;45.222;5.688;2023-04-01T17:24:51;10.50;99.90
14771;DHT22;7477;45.222;5.688;2023-04-01T17:47:33;10.40;99.90
14771;DHT22;7477;45.222;5.688;2023-04-01T17:58:05;10.20;99.90
14771;DHT22;7477;45.222;5.688;2023-04-01T18:16:37;9.90;99.90
14771;DHT22;7477;45.222;5.688;2023-04-01T18:23:51;9.80;99.90
14771;DHT22;7477;45.222;5.688;2023-04-01T18:27:21;9.70;99.90
14771;DHT22;7477;45.222;5.688;2023-04-01T18:30:45;9.60;99.90
14771;DHT22;7477;45.222;5.688;2023-04-01T18:37:57;9.80;99.90
14771;DHT22;7477;45.222;5.688;2023-04-01T18:41:32;9.80;99.90
14771;DHT22;7477;45.222;5.688;2023-04-01T18:52:40;9.60;99.90
14771;DHT22;7477;45.222;5.688;2023-04-01T18:56:11;9.50;99.90
14771;DHT22;7477;45.222;5.688;2023-04-01T18:59:55;9.50;99.90
14771;DHT22;7477;45.222;5.688;2023-04-01T19:03:20;9.40;99.90
14771;DHT22;7477;45.222;5.688;2023-04-01T19:21:18;9.30;99.90
14771;DHT22;7477;45.222;5.688;2023-04-01T19:32:08;9.30;99.90
14771;DHT22;7477;45.222;5.688;2023-04-01T19:43:02;9.10;99.90
14771;DHT22;7477;45.222;5.688;2023-04-01T19:46:27;9.10;99.90
14771;DHT22;7477;45.222;5.688;2023-04-01T19:57:48;9.10;99.90
14771;DHT22;7477;45.222;5.688;2023-04-01T20:01:17;9.00;99.90
14771;DHT22;7477;45.222;5.688;2023-04-01T20:04:50;9.00;99.90
14771;DHT22;7477;45.222;5.688;2023-04-01T20:14:57;9.00;99.90
14771;DHT22;7477;45.222;5.688;2023-04-01T20:18:32;9.00;99.90
14771;DHT22;7477;45.222;5.688;2023-04-01T20:21:57;9.10;99.90
14771;DHT22;7477;45.222;5.688;2023-04-01T20:25:40;9.10;99.90
14771;DHT22;7477;45.222;5.688;2023-04-01T20:51:17;8.90;99.90
14771;DHT22;7477;45.222;5.688;2023-04-01T20:58:28;9.00;99.90
14771;DHT22;7477;45.222;5.688;2023-04-01T21:01:55;9.00;99.90
14771;DHT22;7477;45.222;5.688;2023-04-01T21:16:02;9.10;99.90
14771;DHT22;7477;45.222;5.688;2023-04-01T21:19:46;9.10;99.90
14771;DHT22;7477;45.222;5.688;2023-04-01T21:23:35;9.00;99.90
14771;DHT22;7477;45.222;5.688;2023-04-01T21:34:48;9.10;99.90
14771;DHT22;7477;45.222;5.688;2023-04-01T21:38:48;9.00;99.90
14771;DHT22;7477;45.222;5.688;2023-04-01T21:45:57;8.90;99.90
14771;DHT22;7477;45.222;5.688;2023-04-01T21:53:37;8.90;99.90
14771;DHT22;7477;45.222;5.688;2023-04-01T22:08:52;8.90;99.90
14771;DHT22;7477;45.222;5.688;2023-04-01T22:12:11;8.90;99.90
14771;DHT22;7477;45.222;5.688;2023-04-01T22:19:14;8.80;99.90
14771;DHT22;7477;45.222;5.688;2023-04-01T22:23:02;8.70;99.90
14771;DHT22;7477;45.222;5.688;2023-04-01T22:30:06;8.80;99.90
14771;DHT22;7477;45.222;5.688;2023-04-01T22:36:59;8.80;99.90
14771;DHT22;7477;45.222;5.688;2023-04-01T22:43:44;8.70;99.90
14771;DHT22;7477;45.222;5.688;2023-04-01T22:54:46;8.70;99.90
14771;DHT22;7477;45.222;5.688;2023-04-01T22:58:12;8.70;99.90
14771;DHT22;7477;45.222;5.688;2023-04-01T23:01:40;8.60;99.90
14771;DHT22;7477;45.222;5.688;2023-04-01T23:05:02;8.60;99.90
14771;DHT22;7477;45.222;5.688;2023-04-01T23:12:04;8.70;99.90
14771;DHT22;7477;45.222;5.688;2023-04-01T23:15:27;8.60;99.90
14771;DHT22;7477;45.222;5.688;2023-04-01T23:19:06;8.70;99.90
14771;DHT22;7477;45.222;5.688;2023-04-01T23:29:17;8.60;99.90
14771;DHT22;7477;45.222;5.688;2023-04-01T23:32:38;8.70;99.90
14771;DHT22;7477;45.222;5.688;2023-04-01T23:36:11;8.70;99.90
14771;DHT22;7477;45.222;5.688;2023-04-01T23:39:39;8.60;99.90
14771;DHT22;7477;45.222;5.688;2023-04-01T23:42:59;8.70;99.90
14771;DHT22;7477;45.222;5.688;2023-04-01T23:46:20;8.70;99.90
14771;DHT22;7477;45.222;5.688;2023-04-01T23:49:43;8.70;99.90
14771;DHT22;7477;45.222;5.688;2023-04-01T23:53:21;8.70;99.90
14771;DHT22;7477;45.222;5.688;2023-04-01T23:56:53;8.70;99.90
